MZB9106 GMMN-DAOO
Flight info
| Callsign | MZB9106 |
|---|---|
| Flight time | 0h 44m |
| Altitude | 29000 |
| Route | SADIC UR975 POBUB/N0457F310 UR975 FES UA411 ORSUP |
| Aircraft | IL76/H-SDFGHIM1RTUWXYZ/LB1 |
Departure
| Time | 2026-04-23 19:07 |
|---|---|
| Airport | Mohammed V International Airport (GMMN) |
Arrival
| Time | 2026-04-23 19:51 |
|---|---|
| Airport | Oran Es-Sénia (Ahmed Ben Bella) International Airport (DAOO) |
| Time | Latitude | Longitude | Altitude | Speed | Heading |
|---|---|---|---|---|---|
| 2026-04-23 19:00 | 33.35776 | -7.56986 | 648 ft | 0 kts | 25° |
| 2026-04-23 19:04 | 33.35797 | -7.56987 | 649 ft | 8 kts | 346° |
| 2026-04-23 19:04 | 33.35817 | -7.57060 | 648 ft | 17 kts | 263° |
| 2026-04-23 19:04 | 33.35778 | -7.57260 | 650 ft | 30 kts | 256° |
| 2026-04-23 19:04 | 33.35719 | -7.57531 | 648 ft | 38 kts | 252° |
| 2026-04-23 19:05 | 33.35637 | -7.57833 | 651 ft | 37 kts | 253° |
| 2026-04-23 19:05 | 33.35542 | -7.58007 | 649 ft | 21 kts | 177° |
| 2026-04-23 19:05 | 33.35348 | -7.57954 | 651 ft | 29 kts | 173° |
| 2026-04-23 19:05 | 33.35245 | -7.58047 | 648 ft | 22 kts | 249° |
| 2026-04-23 19:06 | 33.35233 | -7.58230 | 652 ft | 20 kts | 308° |
| 2026-04-23 19:06 | 33.35575 | -7.58379 | 641 ft | 97 kts | 344° |
| 2026-04-23 19:06 | 33.36489 | -7.58693 | 649 ft | 161 kts | 344° |
| 2026-04-23 19:06 | 33.37629 | -7.59078 | 717 ft | 193 kts | 344° |
| 2026-04-23 19:07 | 33.39001 | -7.59549 | 1016 ft | 217 kts | 346° |
| 2026-04-23 19:07 | 33.40508 | -7.60038 | 1358 ft | 232 kts | 346° |
| 2026-04-23 19:07 | 33.42102 | -7.60261 | 1696 ft | 234 kts | 8° |
| 2026-04-23 19:07 | 33.43660 | -7.59573 | 2051 ft | 246 kts | 36° |
| 2026-04-23 19:08 | 33.44895 | -7.58115 | 2475 ft | 255 kts | 46° |
| 2026-04-23 19:08 | 33.45845 | -7.56354 | 2848 ft | 264 kts | 70° |
| 2026-04-23 19:08 | 33.46315 | -7.54262 | 3237 ft | 266 kts | 75° |
| 2026-04-23 19:08 | 33.46740 | -7.52109 | 3603 ft | 268 kts | 74° |
| 2026-04-23 19:09 | 33.47224 | -7.49958 | 3993 ft | 269 kts | 73° |
| 2026-04-23 19:09 | 33.47751 | -7.47743 | 4411 ft | 288 kts | 73° |
| 2026-04-23 19:09 | 33.48315 | -7.45314 | 5026 ft | 325 kts | 74° |
| 2026-04-23 19:09 | 33.48943 | -7.42546 | 5654 ft | 361 kts | 75° |
| 2026-04-23 19:10 | 33.49635 | -7.39498 | 6292 ft | 397 kts | 75° |
| 2026-04-23 19:10 | 33.50396 | -7.36180 | 6937 ft | 428 kts | 75° |
| 2026-04-23 19:10 | 33.51209 | -7.32622 | 7617 ft | 456 kts | 75° |
| 2026-04-23 19:10 | 33.52067 | -7.28858 | 8301 ft | 480 kts | 76° |
| 2026-04-23 19:11 | 33.52968 | -7.24888 | 8990 ft | 502 kts | 76° |
| 2026-04-23 19:11 | 33.53905 | -7.20759 | 9676 ft | 521 kts | 76° |
| 2026-04-23 19:11 | 33.54870 | -7.16509 | 10320 ft | 537 kts | 76° |
| 2026-04-23 19:11 | 33.55865 | -7.12116 | 10957 ft | 551 kts | 76° |
| 2026-04-23 19:12 | 33.56532 | -7.09155 | 11369 ft | 559 kts | 76° |
| 2026-04-23 19:12 | 33.57895 | -7.03115 | 12205 ft | 569 kts | 77° |
| 2026-04-23 19:12 | 33.58934 | -6.98508 | 12851 ft | 575 kts | 77° |
| 2026-04-23 19:12 | 33.59982 | -6.93839 | 13505 ft | 580 kts | 77° |
| 2026-04-23 19:13 | 33.61034 | -6.89140 | 14128 ft | 585 kts | 77° |
| 2026-04-23 19:13 | 33.62100 | -6.84382 | 14712 ft | 591 kts | 77° |
| 2026-04-23 19:13 | 33.63167 | -6.79607 | 15316 ft | 591 kts | 77° |
| 2026-04-23 19:13 | 33.64229 | -6.74848 | 15795 ft | 590 kts | 77° |
| 2026-04-23 19:14 | 33.65273 | -6.70146 | 16279 ft | 589 kts | 77° |
| 2026-04-23 19:14 | 33.66342 | -6.65334 | 16787 ft | 588 kts | 77° |
| 2026-04-23 19:14 | 33.67392 | -6.60597 | 17284 ft | 587 kts | 77° |
| 2026-04-23 19:14 | 33.68439 | -6.55859 | 17806 ft | 585 kts | 77° |
| 2026-04-23 19:15 | 33.69482 | -6.51135 | 18333 ft | 584 kts | 77° |
| 2026-04-23 19:15 | 33.70506 | -6.46484 | 18768 ft | 582 kts | 77° |
| 2026-04-23 19:15 | 33.71475 | -6.42073 | 19208 ft | 581 kts | 77° |
| 2026-04-23 19:15 | 33.72513 | -6.37348 | 19677 ft | 580 kts | 77° |
| 2026-04-23 19:16 | 33.73498 | -6.32709 | 20148 ft | 579 kts | 79° |
| 2026-04-23 19:16 | 33.74247 | -6.27892 | 20634 ft | 577 kts | 81° |
| 2026-04-23 19:16 | 33.74932 | -6.23202 | 21121 ft | 577 kts | 82° |
| 2026-04-23 19:17 | 33.76364 | -6.13702 | 22130 ft | 575 kts | 81° |
| 2026-04-23 19:17 | 33.77089 | -6.08981 | 22648 ft | 575 kts | 81° |
| 2026-04-23 19:17 | 33.77792 | -6.04251 | 23170 ft | 574 kts | 82° |
| 2026-04-23 19:17 | 33.78480 | -5.99576 | 23680 ft | 573 kts | 82° |
| 2026-04-23 19:18 | 33.79201 | -5.94763 | 24136 ft | 572 kts | 82° |
| 2026-04-23 19:18 | 33.79908 | -5.90064 | 24588 ft | 570 kts | 82° |
| 2026-04-23 19:18 | 33.80604 | -5.85369 | 25047 ft | 569 kts | 82° |
| 2026-04-23 19:18 | 33.81292 | -5.80692 | 25510 ft | 567 kts | 82° |
| 2026-04-23 19:19 | 33.82668 | -5.71371 | 26464 ft | 563 kts | 82° |
| 2026-04-23 19:19 | 33.83342 | -5.66785 | 26948 ft | 562 kts | 82° |
| 2026-04-23 19:20 | 33.84689 | -5.57546 | 27953 ft | 559 kts | 82° |
| 2026-04-23 19:20 | 33.85362 | -5.52932 | 28472 ft | 557 kts | 82° |
| 2026-04-23 19:20 | 33.86030 | -5.48335 | 28939 ft | 556 kts | 82° |
| 2026-04-23 19:20 | 33.86470 | -5.45292 | 29023 ft | 558 kts | 82° |
| 2026-04-23 19:21 | 33.87588 | -5.37537 | 29022 ft | 559 kts | 82° |
| 2026-04-23 19:22 | 33.88916 | -5.28300 | 29025 ft | 559 kts | 82° |
| 2026-04-23 19:22 | 33.90895 | -5.14422 | 29016 ft | 560 kts | 82° |
| 2026-04-23 19:23 | 33.91979 | -5.06773 | 29014 ft | 560 kts | 82° |
| 2026-04-23 19:24 | 33.95566 | -4.91741 | 29028 ft | 563 kts | 71° |
| 2026-04-23 19:24 | 33.99057 | -4.79835 | 29038 ft | 563 kts | 72° |
| 2026-04-23 19:25 | 34.04250 | -4.62057 | 29033 ft | 563 kts | 72° |
| 2026-04-23 19:26 | 34.08117 | -4.48733 | 29026 ft | 562 kts | 72° |
| 2026-04-23 19:27 | 34.18450 | -4.12750 | 29016 ft | 559 kts | 73° |
| 2026-04-23 19:28 | 34.23348 | -3.94904 | 29008 ft | 558 kts | 73° |
| 2026-04-23 19:29 | 34.26990 | -3.81559 | 29000 ft | 558 kts | 73° |
| 2026-04-23 19:30 | 34.30645 | -3.68166 | 28995 ft | 557 kts | 74° |
| 2026-04-23 19:31 | 34.34263 | -3.54837 | 28995 ft | 557 kts | 74° |
| 2026-04-23 19:31 | 34.36578 | -3.46258 | 28992 ft | 557 kts | 74° |
| 2026-04-23 19:32 | 34.39033 | -3.37422 | 28990 ft | 557 kts | 73° |
| 2026-04-23 19:32 | 34.41487 | -3.28512 | 28996 ft | 558 kts | 74° |
| 2026-04-23 19:33 | 34.43941 | -3.19571 | 28995 ft | 558 kts | 73° |
| 2026-04-23 19:33 | 34.47616 | -3.06137 | 28993 ft | 559 kts | 74° |
| 2026-04-23 19:34 | 34.50062 | -2.97176 | 28994 ft | 560 kts | 74° |
| 2026-04-23 19:35 | 34.53704 | -2.83747 | 28995 ft | 560 kts | 74° |
| 2026-04-23 19:35 | 34.56137 | -2.74751 | 29014 ft | 560 kts | 74° |
| 2026-04-23 19:36 | 34.58599 | -2.65760 | 29009 ft | 561 kts | 73° |
| 2026-04-23 19:36 | 34.61054 | -2.56763 | 29014 ft | 561 kts | 74° |
| 2026-04-23 19:37 | 34.63359 | -2.48029 | 29014 ft | 561 kts | 74° |
| 2026-04-23 19:37 | 34.65661 | -2.39421 | 29015 ft | 562 kts | 74° |
| 2026-04-23 19:38 | 34.68053 | -2.30368 | 29014 ft | 562 kts | 75° |
| 2026-04-23 19:38 | 34.70445 | -2.21321 | 29025 ft | 563 kts | 75° |
| 2026-04-23 19:39 | 34.72849 | -2.12185 | 29034 ft | 563 kts | 75° |
| 2026-04-23 19:39 | 34.75219 | -2.03149 | 29043 ft | 563 kts | 75° |
| 2026-04-23 19:40 | 34.78179 | -1.94318 | 29049 ft | 568 kts | 60° |
| 2026-04-23 19:40 | 34.82645 | -1.87258 | 29057 ft | 571 kts | 51° |
| 2026-04-23 19:41 | 34.87374 | -1.80413 | 29056 ft | 571 kts | 51° |
| 2026-04-23 19:41 | 34.92518 | -1.72926 | 29045 ft | 571 kts | 51° |
| 2026-04-23 19:42 | 34.97628 | -1.65480 | 29007 ft | 571 kts | 51° |
| 2026-04-23 19:42 | 35.02720 | -1.58044 | 29005 ft | 571 kts | 51° |
| 2026-04-23 19:42 | 35.05290 | -1.54281 | 28495 ft | 576 kts | 51° |
| 2026-04-23 19:43 | 35.07868 | -1.50507 | 27606 ft | 577 kts | 51° |
| 2026-04-23 19:43 | 35.10405 | -1.46790 | 26505 ft | 579 kts | 51° |
| 2026-04-23 19:43 | 35.12996 | -1.42986 | 25291 ft | 580 kts | 51° |
| 2026-04-23 19:43 | 35.15578 | -1.39192 | 24141 ft | 581 kts | 51° |
| 2026-04-23 19:44 | 35.18167 | -1.35383 | 22910 ft | 582 kts | 51° |
| 2026-04-23 19:44 | 35.20762 | -1.31563 | 21634 ft | 583 kts | 51° |
| 2026-04-23 19:44 | 35.23356 | -1.27739 | 20403 ft | 585 kts | 51° |
| 2026-04-23 19:44 | 35.25969 | -1.23882 | 19210 ft | 587 kts | 51° |
| 2026-04-23 19:45 | 35.28579 | -1.20025 | 18047 ft | 589 kts | 51° |
| 2026-04-23 19:45 | 35.31190 | -1.16164 | 16785 ft | 590 kts | 51° |
| 2026-04-23 19:45 | 35.33809 | -1.12285 | 15532 ft | 591 kts | 51° |
| 2026-04-23 19:45 | 35.36428 | -1.08402 | 14369 ft | 589 kts | 50° |
| 2026-04-23 19:46 | 35.39034 | -1.04535 | 13142 ft | 587 kts | 50° |
| 2026-04-23 19:46 | 35.41625 | -1.00687 | 11909 ft | 581 kts | 50° |
| 2026-04-23 19:46 | 35.44184 | -0.96883 | 10701 ft | 572 kts | 51° |
| 2026-04-23 19:46 | 35.46677 | -0.93165 | 9527 ft | 563 kts | 51° |
| 2026-04-23 19:47 | 35.48322 | -0.90721 | 8696 ft | 557 kts | 51° |
| 2026-04-23 19:47 | 35.51496 | -0.85964 | 7086 ft | 520 kts | 51° |
| 2026-04-23 19:47 | 35.53767 | -0.82575 | 5898 ft | 504 kts | 51° |
| 2026-04-23 19:47 | 35.55934 | -0.79336 | 4703 ft | 484 kts | 53° |
| 2026-04-23 19:48 | 35.57671 | -0.76089 | 3195 ft | 424 kts | 60° |
| 2026-04-23 19:48 | 35.58893 | -0.73135 | 1628 ft | 354 kts | 68° |
| 2026-04-23 19:48 | 35.59574 | -0.70579 | 1249 ft | 273 kts | 73° |
| 2026-04-23 19:48 | 35.60099 | -0.68585 | 956 ft | 215 kts | 67° |
| 2026-04-23 19:49 | 35.60639 | -0.67069 | 799 ft | 183 kts | 64° |
| 2026-04-23 19:49 | 35.60731 | -0.66824 | 778 ft | 182 kts | 64° |
| 2026-04-23 19:49 | 35.61214 | -0.65553 | 558 ft | 183 kts | 65° |
| 2026-04-23 19:49 | 35.61679 | -0.64167 | 328 ft | 174 kts | 68° |
| 2026-04-23 19:50 | 35.61718 | -0.64046 | 317 ft | 171 kts | 68° |
| 2026-04-23 19:50 | 35.62073 | -0.63013 | 303 ft | 136 kts | 67° |
| 2026-04-23 19:50 | 35.62375 | -0.62100 | 301 ft | 96 kts | 65° |
| 2026-04-23 19:51 | 35.62608 | -0.61466 | 305 ft | 68 kts | 68° |
| 2026-04-23 19:51 | 35.62770 | -0.60981 | 301 ft | 57 kts | 66° |
| 2026-04-23 19:51 | 35.62884 | -0.60622 | 302 ft | 34 kts | 88° |
| 2026-04-23 19:51 | 35.62818 | -0.60514 | 303 ft | 20 kts | 155° |
| 2026-04-23 19:52 | 35.62727 | -0.60464 | 302 ft | 22 kts | 156° |
| 2026-04-23 19:52 | 35.62706 | -0.60453 | 303 ft | 22 kts | 157° |
| 2026-04-23 19:52 | 35.62655 | -0.60426 | 302 ft | 22 kts | 157° |
| 2026-04-23 19:53 | 35.62511 | -0.60361 | 305 ft | 21 kts | 170° |
| 2026-04-23 19:53 | 35.62433 | -0.60275 | 304 ft | 15 kts | 79° |
| 2026-04-23 19:53 | 35.62486 | -0.60200 | 305 ft | 10 kts | 358° |
| 2026-04-23 19:53 | 35.62544 | -0.60209 | 302 ft | 7 kts | 25° |
| 2026-04-23 19:54 | 35.62557 | -0.60170 | 303 ft | 5 kts | 96° |
| 2026-04-23 19:54 | 35.62545 | -0.60152 | 304 ft | 1 kts | 148° |
| 2026-04-23 19:54 | 35.62531 | -0.60157 | 301 ft | 0 kts | 205° |